Time;durP1;ratioP1;P1;durP2;ratioP2;P2;SDS_P1;SDS_P2;PMS_P1;PMS_P2;Temp;Humidity;BMP_temperature;BMP_pressure;BME280_temperature;BME280_humidity;BME280_pressure;Samples;Min_cycle;Max_cycle;Signal;HPM_P1;HPM_P2
2022/11/08 00:02:24;;;;;;;7.28;2.10;;;;;;;14.01;50.72;101091.69;7396266;19;20390;-62
2022/11/08 00:04:50;;;;;;;12.18;2.50;;;;;;;13.97;51.08;101090.00;7396607;19;19995;-64
2022/11/08 00:15:32;;;;;;;;;;;;;;;13.88;50.92;101098.44;7396177;19;20006;-65
2022/11/08 00:17:57;;;;;;;13.00;2.70;;;;;;;13.91;50.99;101097.72;7394206;19;19914;-66
2022/11/08 00:20:23;;;;;;;13.77;2.63;;;;;;;13.88;50.96;101101.97;7395413;19;20050;-66
2022/11/08 00:22:48;;;;;;;10.52;2.60;;;;;;;13.92;50.91;101099.31;7394951;19;20017;-65
2022/11/08 00:25:14;;;;;;;8.63;2.42;;;;;;;13.91;50.90;101097.72;7393883;19;20497;-66
2022/11/08 00:27:40;;;;;;;8.65;2.33;;;;;;;13.90;50.94;101098.88;7393156;19;20009;-66
2022/11/08 00:30:06;;;;;;;11.48;2.30;;;;;;;13.92;50.88;101095.78;7394017;19;20446;-66
2022/11/08 00:32:31;;;;;;;9.95;2.20;;;;;;;13.91;51.12;101099.66;7395144;19;19999;-64
2022/11/08 00:34:57;;;;;;;9.60;2.50;;;;;;;13.83;51.10;101094.00;7393439;19;20010;-65
2022/11/08 00:37:29;;;;;;;7.05;1.92;;;;;;;13.96;50.93;101091.16;7393257;19;20006;-64
2022/11/08 00:39:55;;;;;;;9.07;2.47;;;;;;;14.01;50.76;101088.94;7396128;19;20014;-64
2022/11/08 00:42:20;;;;;;;10.80;2.85;;;;;;;13.95;50.76;101084.88;7394390;19;20360;-64
2022/11/08 00:44:46;;;;;;;9.63;2.63;;;;;;;14.03;50.66;101085.84;7393310;19;20513;-64
2022/11/08 00:47:12;;;;;;;10.10;2.33;;;;;;;13.96;50.79;101086.47;7391992;19;20002;-65
2022/11/08 00:49:37;;;;;;;7.47;1.90;;;;;;;13.95;50.87;101079.38;7393961;19;20062;-64
2022/11/08 00:52:03;;;;;;;9.80;2.05;;;;;;;14.05;50.69;101083.53;7394923;19;20438;-64
2022/11/08 00:54:29;;;;;;;11.30;2.20;;;;;;;14.01;50.39;101080.72;7394092;19;19986;-64
2022/11/08 00:56:54;;;;;;;7.05;2.22;;;;;;;14.00;50.72;101081.06;7393909;19;20080;-65
2022/11/08 00:59:20;;;;;;;8.93;2.10;;;;;;;14.10;50.42;101079.72;7392956;19;20006;-65
2022/11/08 01:01:46;;;;;;;9.10;2.50;;;;;;;13.98;50.57;101080.63;7394132;19;20039;-65
2022/11/08 01:04:14;;;;;;;7.80;2.17;;;;;;;13.99;50.64;101072.00;7394109;19;20021;-66
2022/11/08 01:06:40;;;;;;;8.93;1.83;;;;;;;14.03;50.72;101072.91;7392958;19;20006;-65
2022/11/08 01:09:07;;;;;;;8.98;2.30;;;;;;;14.15;50.21;101080.22;7391848;19;20005;-65
2022/11/08 01:11:32;;;;;;;9.27;2.28;;;;;;;14.05;50.57;101067.84;7393456;19;20470;-65
2022/11/08 01:13:59;;;;;;;9.98;1.92;;;;;;;14.02;50.70;101071.31;7393493;19;20536;-64
2022/11/08 01:16:31;;;;;;;11.73;2.40;;;;;;;13.96;50.75;101071.94;7393280;19;20019;-64
2022/11/08 01:18:57;;;;;;;11.15;2.50;;;;;;;13.96;50.61;101063.72;7389663;19;19998;-66
2022/11/08 01:21:24;;;;;;;8.82;2.60;;;;;;;14.02;50.55;101065.03;7392827;19;20009;-65
2022/11/08 01:23:50;;;;;;;10.48;2.33;;;;;;;14.07;50.43;101062.78;7393554;19;20002;-64
2022/11/08 01:26:19;;;;;;;9.23;2.58;;;;;;;13.92;50.68;101062.84;7393572;19;20058;-63
2022/11/08 01:28:45;;;;;;;13.65;2.13;;;;;;;13.92;50.81;101060.88;7391246;19;19999;-63
2022/11/08 01:31:17;;;;;;;9.93;1.98;;;;;;;13.90;50.72;101063.19;7390395;19;20022;-63
2022/11/08 01:33:43;;;;;;;8.93;1.92;;;;;;;13.91;50.62;101066.72;7393724;19;20006;-62
2022/11/08 01:36:11;;;;;;;10.45;2.13;;;;;;;13.77;51.04;101069.94;7393336;19;20013;-61
2022/11/08 01:38:37;;;;;;;7.38;1.92;;;;;;;13.84;50.79;101065.44;7389245;19;19999;-63
2022/11/08 01:41:04;;;;;;;8.38;2.17;;;;;;;13.78;50.71;101068.78;7392662;19;20002;-63
2022/11/08 01:43:29;;;;;;;10.82;2.00;;;;;;;13.78;50.93;101063.28;7393249;19;20001;-63
2022/11/08 01:46:17;;;;;;;8.30;1.92;;;;;;;13.55;51.29;101069.41;7393210;19;19994;-63
2022/11/08 01:48:54;;;;;;;5.78;1.83;;;;;;;13.66;51.20;101065.00;7391390;19;20435;-63
2022/11/08 01:51:29;;;;;;;10.60;2.15;;;;;;;13.70;51.17;101068.59;7391171;19;19999;-63
2022/11/08 01:53:57;;;;;;;5.57;2.13;;;;;;;13.61;51.26;101073.50;7391326;19;20469;-64
2022/11/08 01:56:23;;;;;;;9.50;2.05;;;;;;;13.65;51.08;101063.38;7390683;19;20006;-65
2022/11/08 01:58:51;;;;;;;9.77;2.10;;;;;;;13.80;50.93;101066.47;7390263;19;20028;-65
2022/11/08 02:01:16;;;;;;;12.77;2.65;;;;;;;13.83;50.87;101063.84;7390629;19;19995;-63
2022/11/08 02:03:42;;;;;;;12.48;2.63;;;;;;;13.78;50.78;101071.53;7392740;19;19995;-61
2022/11/08 02:06:09;;;;;;;8.57;1.70;;;;;;;13.78;50.71;101061.34;7391347;19;20026;-61
2022/11/08 02:08:43;;;;;;;9.57;2.08;;;;;;;13.83;50.42;101063.84;7390339;19;20066;-63
2022/11/08 02:11:11;;;;;;;7.20;1.55;;;;;;;13.59;51.13;101059.31;7391111;19;19994;-63
2022/11/08 02:13:38;;;;;;;9.82;2.30;;;;;;;13.61;51.20;101062.53;7391434;19;20339;-62
2022/11/08 02:16:14;;;;;;;11.65;2.03;;;;;;;13.67;50.74;101066.56;7392137;19;20003;-62
2022/11/08 02:18:42;;;;;;;12.07;2.63;;;;;;;13.76;50.49;101062.84;7390221;19;20032;-61
2022/11/08 02:21:08;;;;;;;11.05;2.17;;;;;;;13.75;50.76;101053.81;7391605;19;20002;-61
2022/11/08 02:23:48;;;;;;;7.32;2.08;;;;;;;13.59;50.99;101055.78;7391503;19;20003;-64
2022/11/08 02:26:16;;;;;;;13.32;2.78;;;;;;;13.64;51.02;101050.84;7389528;19;20007;-63
2022/11/08 02:28:45;;;;;;;7.60;2.03;;;;;;;13.62;50.92;101050.38;7387284;19;20363;-62
2022/11/08 02:31:13;;;;;;;8.27;1.90;;;;;;;13.63;50.80;101057.47;7387841;19;19999;-62
2022/11/08 02:33:39;;;;;;;10.73;2.13;;;;;;;13.32;51.56;101050.84;7390858;19;20359;-61
2022/11/08 02:36:07;;;;;;;12.73;2.20;;;;;;;13.51;51.18;101054.84;7390916;19;20033;-62
2022/11/08 02:38:39;;;;;;;8.35;2.08;;;;;;;13.50;51.03;101050.50;7389131;19;20003;-61
2022/11/08 02:41:11;;;;;;;10.45;2.50;;;;;;;13.53;51.08;101049.78;7391086;19;20325;-61
2022/11/08 02:43:37;;;;;;;9.50;2.55;;;;;;;13.55;50.90;101044.75;7389580;19;20029;-62
2022/11/08 02:46:03;;;;;;;7.00;2.20;;;;;;;13.43;51.03;101042.09;7390854;19;20070;-62
2022/11/08 02:48:28;;;;;;;7.60;1.95;;;;;;;13.35;51.57;101043.88;7388971;19;19999;-61
2022/11/08 02:50:54;;;;;;;7.88;2.00;;;;;;;13.49;50.78;101043.41;7389133;19;20029;-61
2022/11/08 02:53:20;;;;;;;8.80;2.60;;;;;;;13.46;51.28;101046.84;7390396;19;20002;-61
2022/11/08 02:55:46;;;;;;;9.30;2.00;;;;;;;13.54;50.83;101042.34;7390592;19;20003;-62
2022/11/08 02:58:11;;;;;;;13.32;2.17;;;;;;;13.54;50.77;101036.88;7386981;19;20058;-60
2022/11/08 03:00:38;;;;;;;12.52;2.45;;;;;;;13.48;50.86;101048.09;7390320;19;20007;-61
2022/11/08 03:03:04;;;;;;;9.13;2.28;;;;;;;13.36;51.04;101042.72;7390119;19;20009;-61
2022/11/08 03:05:31;;;;;;;9.18;2.25;;;;;;;13.35;51.24;101046.59;7390300;19;20006;-61
2022/11/08 03:07:56;;;;;;;7.75;2.20;;;;;;;13.22;51.42;101045.09;7388639;19;19995;-61
2022/11/08 03:10:24;;;;;;;9.05;2.55;;;;;;;13.14;51.68;101050.41;7388751;19;20320;-62
2022/11/08 03:12:57;;;;;;;8.48;1.80;;;;;;;13.09;51.88;101047.13;7390982;19;20006;-62
2022/11/08 03:15:23;;;;;;;10.70;2.33;;;;;;;13.23;51.60;101044.75;7388055;19;20058;-61
2022/11/08 03:17:48;;;;;;;9.85;2.45;;;;;;;13.25;51.32;101038.91;7388675;19;20032;-62
2022/11/08 03:20:14;;;;;;;8.25;2.22;;;;;;;13.32;51.16;101039.88;7389770;19;20010;-62
2022/11/08 03:22:40;;;;;;;9.57;2.03;;;;;;;13.34;50.90;101036.78;7390272;19;20021;-63
2022/11/08 03:25:06;;;;;;;10.40;2.10;;;;;;;13.12;51.45;101035.47;7387625;19;20478;-62
2022/11/08 03:27:32;;;;;;;9.15;2.28;;;;;;;13.20;51.21;101037.25;7387176;19;20086;-61
2022/11/08 03:29:57;;;;;;;9.10;2.35;;;;;;;13.23;51.24;101041.22;7388802;19;20515;-62
2022/11/08 03:32:23;;;;;;;12.07;2.13;;;;;;;13.21;51.35;101033.34;7390236;19;20066;-62
2022/11/08 03:34:49;;;;;;;8.13;2.15;;;;;;;13.08;51.63;101034.59;7389141;19;20486;-60
2022/11/08 03:37:14;;;;;;;10.95;2.10;;;;;;;13.01;51.64;101039.88;7388264;19;20526;-60
2022/11/08 03:39:40;;;;;;;7.93;1.95;;;;;;;13.11;51.62;101033.88;7388698;19;20417;-62
2022/11/08 03:42:06;;;;;;;7.93;1.98;;;;;;;13.08;51.79;101031.84;7392717;19;20019;-62
2022/11/08 03:44:32;;;;;;;10.10;2.08;;;;;;;13.09;51.51;101030.69;7400686;19;19999;-64
2022/11/08 03:46:59;;;;;;;10.68;2.22;;;;;;;12.98;51.92;101030.44;7395553;19;20478;-62
2022/11/08 03:49:25;;;;;;;9.63;2.33;;;;;;;12.85;52.35;101031.63;7396447;19;19991;-61
2022/11/08 03:51:52;;;;;;;9.48;2.13;;;;;;;12.86;52.24;101025.78;7396756;19;20009;-61
2022/11/08 03:54:17;;;;;;;9.32;2.22;;;;;;;12.75;52.57;101038.41;7396012;19;19998;-61
2022/11/08 03:56:43;;;;;;;8.40;2.40;;;;;;;12.76;52.52;101034.53;7394100;19;19999;-61
2022/11/08 03:59:10;;;;;;;12.30;2.22;;;;;;;12.75;52.26;101030.19;7393121;19;20478;-61
2022/11/08 04:01:36;;;;;;;11.57;2.47;;;;;;;12.80;52.14;101027.19;7395924;19;20054;-62
2022/11/08 04:04:01;;;;;;;9.10;2.30;;;;;;;12.80;52.09;101027.19;7396190;19;20006;-62
2022/11/08 04:06:27;;;;;;;8.57;2.05;;;;;;;12.85;51.88;101028.88;7391628;19;20003;-59
2022/11/08 04:08:53;;;;;;;8.75;2.08;;;;;;;12.78;52.03;101026.75;7393859;19;20446;-59
2022/11/08 04:16:47;;;;;;;7.38;2.15;;;;;;;12.87;51.80;101032.88;7394760;19;19918;-58
2022/11/08 04:21:57;;;;;;;8.50;2.00;;;;;;;12.79;52.06;101025.56;7395289;19;20005;-57
2022/11/08 04:24:23;;;;;;;8.57;1.92;;;;;;;12.68;52.24;101019.03;7395342;19;20031;-57
2022/11/08 04:26:48;;;;;;;10.23;2.20;;;;;;;12.62;52.26;101034.13;7394626;19;19994;-57
2022/11/08 04:29:14;;;;;;;12.00;2.45;;;;;;;12.61;52.23;101027.88;7395025;19;20339;-57
2022/11/08 04:31:39;;;;;;;10.30;1.90;;;;;;;12.68;52.11;101032.75;7394301;19;20069;-57
2022/11/08 04:34:05;;;;;;;8.07;2.10;;;;;;;12.80;51.75;101032.66;7395523;19;20017;-56
2022/11/08 04:36:34;;;;;;;11.80;2.67;;;;;;;12.80;51.49;101034.63;7392763;19;20002;-57
2022/11/08 04:39:00;;;;;;;8.68;2.28;;;;;;;12.85;51.69;101024.19;7393090;19;19991;-57
2022/11/08 04:41:26;;;;;;;9.80;2.15;;;;;;;12.89;51.56;101022.38;7393864;19;19995;-57
2022/11/08 04:43:54;;;;;;;11.90;2.28;;;;;;;12.98;51.41;101018.69;7395034;19;20468;-57
2022/11/08 04:46:22;;;;;;;11.82;2.15;;;;;;;12.97;51.31;101020.59;7394344;19;20006;-57
2022/11/08 04:48:53;;;;;;;10.00;2.15;;;;;;;13.01;51.43;101010.53;7390814;19;19998;-58
2022/11/08 04:51:25;;;;;;;8.45;2.15;;;;;;;12.92;51.24;101009.91;7393336;19;19995;-57
2022/11/08 04:53:51;;;;;;;10.90;2.40;;;;;;;12.96;51.46;101006.13;7391720;19;20013;-56
2022/11/08 04:56:19;;;;;;;9.75;2.08;;;;;;;12.91;51.19;101003.63;7390935;19;20073;-58
2022/11/08 04:58:52;;;;;;;10.65;2.05;;;;;;;12.77;51.56;101003.22;7391180;19;20463;-57
2022/11/08 05:01:21;;;;;;;6.18;1.88;;;;;;;12.94;51.21;101005.69;7395228;19;20094;-57
2022/11/08 05:03:48;;;;;;;11.57;2.92;;;;;;;13.01;51.07;101001.50;7394136;19;20003;-57
2022/11/08 05:06:19;;;;;;;10.63;2.33;;;;;;;12.98;51.35;101002.25;7393435;19;20040;-57
2022/11/08 05:08:45;;;;;;;6.82;2.10;;;;;;;13.04;50.85;100987.91;7391852;19;20006;-57
2022/11/08 05:11:13;;;;;;;12.55;2.70;;;;;;;12.88;51.58;100990.66;7392649;19;20362;-57
2022/11/08 05:13:40;;;;;;;10.60;2.45;;;;;;;12.81;51.47;100998.66;7393299;19;20003;-57
2022/11/08 05:16:09;;;;;;;8.45;2.47;;;;;;;12.76;51.53;101005.19;7393670;19;19999;-57
2022/11/08 05:18:35;;;;;;;8.35;2.30;;;;;;;12.75;51.82;100995.38;7389918;19;20346;-57
2022/11/08 05:23:58;;;;;;;7.65;2.05;;;;;;;12.87;51.49;100982.78;7393689;19;20070;-57
2022/11/08 05:26:24;;;;;;;10.48;2.00;;;;;;;12.75;51.77;100986.34;7390606;19;20009;-57
2022/11/08 05:28:49;;;;;;;8.07;2.28;;;;;;;12.82;51.45;100988.50;7392423;19;20002;-58
2022/11/08 05:31:15;;;;;;;9.73;2.20;;;;;;;12.82;51.40;100983.00;7389434;19;20005;-58
2022/11/08 05:33:41;;;;;;;9.77;2.15;;;;;;;12.83;51.08;100985.41;7391656;19;20011;-58
2022/11/08 05:36:10;;;;;;;12.15;2.67;;;;;;;12.73;51.64;100983.19;7392919;19;20010;-57
2022/11/08 05:38:36;;;;;;;8.90;2.58;;;;;;;12.74;51.56;100982.00;7391563;19;20002;-57
2022/11/08 05:41:11;;;;;;;12.25;2.28;;;;;;;12.63;51.65;100980.97;7391113;19;20058;-57
2022/11/08 05:43:38;;;;;;;14.50;2.55;;;;;;;12.66;51.62;100972.03;7393459;19;20082;-57
2022/11/08 05:46:04;;;;;;;9.48;2.30;;;;;;;12.69;51.59;100974.06;7391846;19;20015;-57
2022/11/08 05:48:29;;;;;;;8.70;2.40;;;;;;;12.71;51.44;100964.38;7388756;19;20011;-56
2022/11/08 05:50:55;;;;;;;8.75;2.55;;;;;;;12.72;51.29;100965.16;7389077;19;20069;-57
2022/11/08 05:53:24;;;;;;;10.55;2.38;;;;;;;12.59;51.40;100965.22;7390772;19;19999;-56
2022/11/08 05:55:55;;;;;;;10.93;2.50;;;;;;;12.67;51.27;100966.19;7392887;19;20011;-56
2022/11/08 05:58:21;;;;;;;8.57;2.25;;;;;;;12.70;51.25;100965.50;7390134;19;20022;-56
2022/11/08 06:00:53;;;;;;;8.75;3.03;;;;;;;12.52;51.71;100958.75;7389817;19;19999;-57
2022/11/08 06:03:18;;;;;;;10.55;2.60;;;;;;;12.64;51.26;100955.97;7391791;19;20015;-57
2022/11/08 06:05:44;;;;;;;9.55;2.30;;;;;;;12.49;51.75;100954.78;7392519;19;20410;-57
2022/11/08 06:08:10;;;;;;;8.10;2.30;;;;;;;12.55;51.65;100953.38;7388001;19;20002;-58
2022/11/08 06:10:35;;;;;;;11.38;2.65;;;;;;;12.70;51.40;100948.28;7391031;19;20465;-57
2022/11/08 06:13:01;;;;;;;9.45;2.63;;;;;;;12.77;50.81;100945.72;7391144;19;19998;-58
2022/11/08 06:15:27;;;;;;;6.97;2.28;;;;;;;12.53;51.66;100950.19;7391831;19;19994;-57
2022/11/08 06:17:52;;;;;;;8.48;2.20;;;;;;;12.64;51.26;100950.50;7389534;19;19999;-57
2022/11/08 06:20:18;;;;;;;9.25;2.20;;;;;;;12.74;50.90;100946.41;7391957;19;20356;-57
2022/11/08 06:22:43;;;;;;;108.60;14.85;;;;;;;12.66;51.31;100958.31;7391982;19;20023;-56
2022/11/08 06:25:09;;;;;;;44.03;6.28;;;;;;;12.51;51.26;100948.97;7390582;19;20003;-57
2022/11/08 06:27:35;;;;;;;27.25;4.78;;;;;;;12.40;51.76;100948.66;7391307;19;20002;-57
2022/11/08 06:30:02;;;;;;;9.30;2.22;;;;;;;12.51;51.43;100955.22;7390248;19;20346;-57
2022/11/08 06:32:28;;;;;;;7.55;2.30;;;;;;;12.47;51.51;100951.59;7390216;19;20008;-56
2022/11/08 06:34:54;;;;;;;12.68;2.50;;;;;;;12.45;51.28;100948.41;7391061;19;19991;-58
2022/11/08 06:37:26;;;;;;;9.25;1.95;;;;;;;12.57;51.22;100944.81;7390381;19;20463;-56
2022/11/08 06:39:51;;;;;;;11.75;2.80;;;;;;;12.37;51.60;100952.09;7389233;19;20014;-57
2022/11/08 06:42:17;;;;;;;8.88;2.42;;;;;;;12.46;51.42;100941.81;7390978;19;20331;-57
2022/11/08 06:44:43;;;;;;;6.65;2.33;;;;;;;12.39;51.39;100947.88;7389376;19;20009;-57
2022/11/08 06:47:08;;;;;;;11.02;2.40;;;;;;;12.43;51.37;100945.25;7389513;19;19998;-56
2022/11/08 06:49:36;;;;;;;9.07;2.30;;;;;;;12.55;51.10;100947.91;7390880;19;19999;-56
2022/11/08 06:52:02;;;;;;;8.68;2.28;;;;;;;12.54;50.89;100937.28;7391634;19;19991;-57
2022/11/08 06:54:27;;;;;;;10.60;2.58;;;;;;;12.57;51.14;100939.34;7389855;19;19999;-56
2022/11/08 06:56:54;;;;;;;7.47;2.03;;;;;;;12.60;50.89;100933.16;7389610;19;20334;-57
2022/11/08 06:59:26;;;;;;;13.15;2.45;;;;;;;12.56;51.20;100941.28;7389495;19;20098;-57
2022/11/08 07:01:52;;;;;;;7.63;1.98;;;;;;;12.62;50.76;100943.75;7390204;19;20005;-58
2022/11/08 07:04:18;;;;;;;8.75;2.10;;;;;;;12.52;51.03;100948.59;7391258;19;20113;-57
2022/11/08 07:06:43;;;;;;;8.98;2.25;;;;;;;12.64;50.78;100944.19;7386960;19;20491;-57
2022/11/08 07:09:09;;;;;;;7.57;2.20;;;;;;;12.54;51.25;100935.38;7390538;19;20058;-56
2022/11/08 07:11:35;;;;;;;10.70;2.65;;;;;;;12.64;50.74;100945.00;7387825;19;20036;-56
2022/11/08 07:14:01;;;;;;;7.22;2.20;;;;;;;12.59;50.74;100937.84;7390544;19;20006;-58
2022/11/08 07:16:26;;;;;;;10.82;2.55;;;;;;;12.44;51.33;100941.38;7392017;19;20003;-57
2022/11/08 07:18:54;;;;;;;10.70;2.45;;;;;;;12.63;50.67;100926.19;7393397;19;20076;-57
2022/11/08 07:21:21;;;;;;;9.50;2.10;;;;;;;12.53;50.76;100928.28;7397557;19;20066;-60
2022/11/08 07:23:47;;;;;;;7.90;2.30;;;;;;;12.43;51.02;100928.81;7397562;19;20002;-57
2022/11/08 07:26:13;;;;;;;8.52;2.60;;;;;;;12.58;50.61;100919.81;7398016;19;20009;-57
2022/11/08 07:28:39;;;;;;;10.43;2.25;;;;;;;12.63;50.52;100921.50;7394354;19;20006;-58
2022/11/08 07:31:06;;;;;;;126.70;15.95;;;;;;;12.69;50.47;100913.81;7395230;19;20054;-57
2022/11/08 07:33:32;;;;;;;21.35;4.18;;;;;;;12.86;49.95;100907.19;7397485;19;19995;-57
2022/11/08 07:35:58;;;;;;;11.05;2.55;;;;;;;12.94;49.77;100904.31;7397541;19;20342;-56
2022/11/08 07:38:25;;;;;;;9.18;1.98;;;;;;;12.68;50.33;100909.50;7393687;19;20529;-57
2022/11/08 07:40:54;;;;;;;7.90;2.00;;;;;;;12.83;49.97;100903.22;7397260;19;20026;-56
2022/11/08 07:43:19;;;;;;;10.40;2.58;;;;;;;12.85;50.05;100909.13;7397650;19;20463;-58
2022/11/08 07:45:45;;;;;;;8.13;2.33;;;;;;;12.77;50.03;100907.38;7397296;19;20003;-57
2022/11/08 07:48:12;;;;;;;9.18;2.22;;;;;;;12.82;49.90;100914.53;7394502;19;20066;-57
2022/11/08 07:50:39;;;;;;;9.43;2.08;;;;;;;12.79;49.88;100910.53;7395217;19;19999;-60
2022/11/08 07:53:05;;;;;;;8.15;2.05;;;;;;;12.68;50.12;100917.72;7397154;19;19990;-58
2022/11/08 07:55:31;;;;;;;11.15;2.20;;;;;;;12.66;50.06;100909.84;7395829;19;19994;-58
2022/11/08 07:58:00;;;;;;;11.55;2.40;;;;;;;12.57;50.19;100906.47;7394743;19;20393;-58
2022/11/08 08:00:30;;;;;;;7.68;1.90;;;;;;;12.58;50.08;100908.88;7393519;19;20031;-57
2022/11/08 08:02:58;;;;;;;8.35;2.50;;;;;;;12.51;50.34;100907.91;7395643;19;20474;-57
2022/11/08 08:05:25;;;;;;;8.25;2.17;;;;;;;12.77;49.71;100904.63;7395681;19;20006;-57
2022/11/08 08:07:50;;;;;;;7.20;1.98;;;;;;;12.89;49.63;100890.88;7394431;19;20010;-57
2022/11/08 08:10:16;;;;;;;7.07;3.35;;;;;;;12.98;49.30;100884.44;7394674;19;20335;-57
2022/11/08 08:12:42;;;;;;;11.50;2.38;;;;;;;12.84;49.52;100885.66;7394446;19;19991;-57
2022/11/08 08:15:08;;;;;;;8.82;2.20;;;;;;;12.83;49.49;100894.22;7395684;19;20026;-57
2022/11/08 08:17:33;;;;;;;8.82;2.10;;;;;;;13.03;49.14;100892.38;7394000;19;20003;-57
2022/11/08 08:19:59;;;;;;;8.23;2.10;;;;;;;13.03;49.00;100895.13;7394117;19;20019;-58
2022/11/08 08:22:24;;;;;;;7.63;2.20;;;;;;;13.08;48.84;100894.84;7393393;19;19999;-58
2022/11/08 08:24:50;;;;;;;8.95;2.30;;;;;;;12.91;49.16;100888.59;7395442;19;20006;-58
2022/11/08 08:27:15;;;;;;;6.38;2.13;;;;;;;12.89;49.19;100885.41;7392042;19;20021;-57
2022/11/08 08:29:41;;;;;;;9.23;2.42;;;;;;;13.19;48.60;100884.09;7394429;19;20040;-57
2022/11/08 08:32:07;;;;;;;6.38;1.90;;;;;;;13.20;48.56;100885.72;7393318;19;20002;-58
2022/11/08 08:34:32;;;;;;;6.05;2.20;;;;;;;13.16;48.58;100888.38;7395891;19;19999;-58
2022/11/08 08:36:58;;;;;;;7.82;1.92;;;;;;;13.22;48.45;100888.88;7392627;19;20066;-58
2022/11/08 08:39:23;;;;;;;5.40;1.80;;;;;;;12.95;49.08;100888.66;7394948;19;20019;-60
2022/11/08 08:41:49;;;;;;;10.48;2.30;;;;;;;13.30;48.12;100885.94;7394754;19;19998;-58
2022/11/08 08:44:14;;;;;;;8.05;1.98;;;;;;;13.40;48.23;100883.81;7395082;19;19994;-57
2022/11/08 08:46:40;;;;;;;11.90;2.55;;;;;;;13.50;47.89;100875.00;7392873;19;20058;-57
2022/11/08 08:49:06;;;;;;;6.88;1.90;;;;;;;13.54;47.63;100870.38;7391529;19;20003;-58
2022/11/08 08:51:31;;;;;;;8.43;1.98;;;;;;;13.62;47.74;100865.84;7392536;19;19995;-57
2022/11/08 08:53:57;;;;;;;7.68;1.88;;;;;;;13.67;47.39;100858.13;7393951;19;20009;-58
2022/11/08 08:56:23;;;;;;;8.25;2.33;;;;;;;13.60;47.58;100852.50;7394440;19;20510;-58
2022/11/08 08:58:49;;;;;;;7.05;2.50;;;;;;;13.63;47.82;100848.25;7391883;19;20118;-57
2022/11/08 09:01:15;;;;;;;7.43;2.00;;;;;;;13.64;47.53;100844.34;7392794;19;20070;-57
2022/11/08 09:03:40;;;;;;;7.70;2.13;;;;;;;13.59;47.98;100839.13;7395136;19;20394;-57
2022/11/08 09:06:06;;;;;;;6.35;1.92;;;;;;;13.65;47.71;100840.44;7391720;19;20475;-57
2022/11/08 09:08:32;;;;;;;7.18;1.92;;;;;;;13.78;47.40;100830.13;7391611;19;20003;-58
2022/11/08 09:10:59;;;;;;;6.53;1.92;;;;;;;13.77;47.35;100834.78;7392460;19;20005;-56
2022/11/08 09:13:29;;;;;;;7.38;1.80;;;;;;;13.80;47.07;100827.81;7394136;19;20006;-57
2022/11/08 09:15:55;;;;;;;7.70;1.80;;;;;;;13.77;47.39;100831.28;7394352;19;20110;-57
2022/11/08 09:18:21;;;;;;;6.70;2.13;;;;;;;13.72;47.34;100826.06;7391770;19;20011;-58
2022/11/08 09:20:47;;;;;;;7.97;2.05;;;;;;;13.47;47.67;100829.09;7391695;19;20625;-58
2022/11/08 09:23:15;;;;;;;6.68;1.98;;;;;;;13.48;47.85;100827.97;7393924;19;20062;-56
2022/11/08 09:25:41;;;;;;;6.20;1.70;;;;;;;13.66;47.37;100823.63;7390561;19;20358;-57
2022/11/08 09:28:08;;;;;;;4.00;1.85;;;;;;;13.62;47.60;100822.75;7392215;19;20063;-56
2022/11/08 09:30:33;;;;;;;6.80;1.83;;;;;;;13.68;47.39;100817.78;7392121;19;20033;-57
2022/11/08 09:32:59;;;;;;;8.52;1.60;;;;;;;13.69;47.14;100817.44;7392887;19;19999;-57
2022/11/08 09:35:25;;;;;;;6.13;1.98;;;;;;;13.69;47.28;100828.41;7392971;19;20017;-57
2022/11/08 09:37:53;;;;;;;6.47;1.90;;;;;;;13.80;47.01;100800.38;7391415;19;19995;-57
2022/11/08 09:40:44;;;;;;;5.10;1.70;;;;;;;13.86;46.88;100816.19;7391379;19;20002;-57
2022/11/08 09:43:13;;;;;;;5.13;2.03;;;;;;;13.93;46.77;100817.47;7392501;19;20494;-57
2022/11/08 09:45:51;;;;;;;6.18;1.90;;;;;;;13.75;47.09;100806.16;7390820;19;20011;-57
2022/11/08 09:48:34;;;;;;;8.07;1.83;;;;;;;13.70;46.92;100808.03;7391438;19;20003;-57
2022/11/08 09:51:08;;;;;;;7.15;2.00;;;;;;;13.70;47.21;100802.53;7390980;19;20066;-57
2022/11/08 09:53:46;;;;;;;8.10;2.13;;;;;;;13.83;47.03;100797.72;7393276;19;20005;-58
2022/11/08 09:56:33;;;;;;;6.93;2.00;;;;;;;13.79;46.72;100787.81;7392556;19;20012;-57
2022/11/08 09:59:24;;;;;;;4.25;1.50;;;;;;;13.83;46.92;100783.22;7391103;19;20007;-58
2022/11/08 10:01:49;;;;;;;5.38;1.70;;;;;;;14.02;46.72;100779.63;7391680;19;20021;-57
2022/11/08 10:04:18;;;;;;;4.65;1.60;;;;;;;14.05;46.41;100773.41;7390478;19;20010;-58
2022/11/08 10:06:56;;;;;;;7.38;1.77;;;;;;;14.08;46.44;100761.72;7389677;19;20028;-58
2022/11/08 10:09:30;;;;;;;6.82;1.67;;;;;;;13.97;46.43;100777.97;7391607;19;20007;-57
2022/11/08 10:12:11;;;;;;;4.07;1.70;;;;;;;14.00;45.73;100777.25;7392331;19;20110;-57
2022/11/08 10:14:54;;;;;;;6.13;1.70;;;;;;;14.16;45.85;100768.91;7391574;19;20006;-58
2022/11/08 10:17:52;;;;;;;4.45;1.50;;;;;;;14.23;45.16;100762.75;7391060;19;20037;-58
2022/11/08 10:20:28;;;;;;;5.32;1.45;;;;;;;14.10;45.49;100761.34;7390530;19;19999;-58
2022/11/08 10:23:06;;;;;;;5.50;1.75;;;;;;;14.28;45.34;100759.69;7391906;19;20451;-58
2022/11/08 10:25:38;;;;;;;5.63;1.85;;;;;;;14.45;44.96;100755.63;7392488;19;20007;-57
2022/11/08 10:28:05;;;;;;;5.57;1.58;;;;;;;14.02;45.50;100755.72;7390336;19;20082;-57
2022/11/08 10:30:34;;;;;;;4.57;1.70;;;;;;;14.19;45.46;100743.44;7390410;19;19998;-58
2022/11/08 10:33:00;;;;;;;6.80;1.92;;;;;;;14.59;44.59;100746.78;7392119;19;20006;-58
2022/11/08 10:35:45;;;;;;;7.93;1.52;;;;;;;14.70;44.55;100742.25;7391179;19;20010;-58
2022/11/08 10:38:23;;;;;;;6.95;1.90;;;;;;;14.80;44.35;100736.16;7389702;19;20003;-57
2022/11/08 10:41:24;;;;;;;4.80;1.70;;;;;;;14.72;44.28;100742.69;7390623;19;20002;-57
2022/11/08 10:44:15;;;;;;;6.40;1.70;;;;;;;14.76;44.29;100742.75;7391453;19;20002;-58
2022/11/08 10:46:48;;;;;;;6.65;1.50;;;;;;;14.72;44.06;100739.94;7389140;19;20039;-57
2022/11/08 10:49:20;;;;;;;5.40;1.70;;;;;;;14.74;43.97;100737.59;7391999;19;20009;-58
2022/11/08 10:51:48;;;;;;;9.85;2.00;;;;;;;14.69;44.54;100721.44;7394794;19;20007;-57
2022/11/08 10:54:42;;;;;;;7.20;1.80;;;;;;;14.43;44.39;100734.03;7398521;19;20362;-58
2022/11/08 10:57:14;;;;;;;6.50;1.65;;;;;;;14.65;44.46;100739.84;7397747;19;20002;-57
2022/11/08 10:59:40;;;;;;;7.00;1.63;;;;;;;14.82;44.24;100737.75;7396904;19;20033;-56
2022/11/08 11:02:27;;;;;;;5.75;1.60;;;;;;;14.66;44.37;100740.63;7397395;19;20071;-56
2022/11/08 11:05:12;;;;;;;5.57;1.70;;;;;;;14.94;43.99;100719.03;7398523;19;20009;-57
2022/11/08 11:07:37;;;;;;;5.50;1.60;;;;;;;14.82;44.04;100715.75;7394299;19;20082;-57
2022/11/08 11:10:24;;;;;;;5.82;1.70;;;;;;;14.72;43.93;100693.22;7397918;19;19998;-57
2022/11/08 11:13:01;;;;;;;5.45;1.58;;;;;;;14.85;43.70;100698.53;7397936;19;20034;-56
2022/11/08 11:15:55;;;;;;;6.68;2.22;;;;;;;14.58;43.71;100680.09;7396996;19;20007;-59
2022/11/08 11:18:48;;;;;;;7.45;1.45;;;;;;;14.67;43.84;100681.78;7395460;19;20007;-58
2022/11/08 11:21:20;;;;;;;3.20;1.23;;;;;;;14.97;43.33;100687.28;7395349;19;20468;-58
2022/11/08 11:23:48;;;;;;;4.85;1.63;;;;;;;15.08;43.37;100684.66;7396000;19;20003;-56
2022/11/08 11:26:34;;;;;;;4.88;1.75;;;;;;;14.95;43.11;100689.63;7395899;19;19994;-57
2022/11/08 11:29:05;;;;;;;6.50;1.38;;;;;;;14.96;43.61;100691.19;7393966;19;20327;-57
2022/11/08 11:31:36;;;;;;;5.30;1.70;;;;;;;14.99;43.56;100695.94;7392692;19;20470;-56
2022/11/08 11:34:17;;;;;;;8.20;1.55;;;;;;;14.96;43.36;100680.19;7397401;19;20003;-57
2022/11/08 11:37:08;;;;;;;4.60;1.50;;;;;;;15.12;42.93;100680.00;7395338;19;20041;-58
2022/11/08 11:39:52;;;;;;;4.65;1.48;;;;;;;15.19;42.90;100685.56;7396357;19;20502;-58
2022/11/08 11:42:59;;;;;;;4.47;1.15;;;;;;;15.27;42.43;100672.72;7397523;19;19998;-58
2022/11/08 11:45:36;;;;;;;5.03;1.52;;;;;;;15.22;42.97;100684.81;7396772;19;20013;-57
2022/11/08 11:48:30;;;;;;;7.78;1.35;;;;;;;15.32;42.55;100680.63;7392492;19;19994;-57
2022/11/08 11:50:56;;;;;;;6.97;1.30;;;;;;;15.42;42.51;100682.69;7393880;19;19998;-57
2022/11/08 11:53:37;;;;;;;8.57;1.40;;;;;;;15.38;42.22;100676.38;7397177;19;19998;-58